Terminal Aerodrome Forecast
Issued by NWS Boston, MA

Home | Current Version | Previous Version | Text Only | Print | Product List | Glossary On
Versions: 1 2 3 4 5 6 7 8 9 10 11 12 13 14 15 16 17 18 19 20 21 22 23 24 25 26 27 28 29 30 31 32 33 34 35 36 37 38 39 40 41 42 43 44 45 46
623
FTUS41 KBOX 151120
TAFBDL
TAF
KBDL 151120Z 1512/1618 00000KT P6SM BKN250
     FM152300 VRB03KT P6SM VCSH OVC040
     FM160000 VRB03KT P6SM -SN OVC020
     FM160300 VRB03KT P6SM OVC025
     FM160400 26004KT P6SM BKN035
     FM160700 25004KT P6SM SCT080
     FM161500 27012G22KT P6SM FEW250
     FM161600 27013KT P6SM FEW250=

USA.gov is the U.S. government's official web portal to all federal, state and local government web resources and services.